Aérodrome :
LOGIN :

S'inscrire | Disclaimer

   EN    FR    IT 

 










Légende :    VFR   VFR Marginal   IFR   IFR Intensif   IFR Très Intensif
Visi : 
Plafond : 
>= 8 km
>= 3000ft
5 à 8 km
1000 à 3000 ft
1500m à 5 km
500 à 1000 ft
800 à 1500m
200 à 500 ft
< 800m
< 200 ft
Symboles :   Orages  Brouillard  Fortes neiges  Fortes précipitations  Vent > 20 kt
SIGMETs :   Divers  Orages  Givrage  Turbulence  Onde Orograph.  Cendres Volcan.






- Altitude de l'aérodrome : 659 ft
- Code IATA : LYN


LFLY - Lyon Bron

DERNIER METAR :
  • 060030Z AUTO 35011KT 9999 OVC018 05/02 Q1033

METARs EXPIRÉS :
  • 060000Z AUTO 35008KT 310V020 9999 OVC019 05/02 Q1033
  • 052330Z AUTO 36009KT 310V030 9999 OVC019 05/02 Q1034
  • 052300Z AUTO 35012KT 9999 BKN019 BKN028 05/02 Q1033
  • 052230Z AUTO 35015KT 9999 FEW021 BKN033 05/02 Q1033
  • 052130Z AUTO 35015G26KT 9999 FEW024 OVC054 06/02 Q1034 TEMPO BKN008

TAF TAF LFLY
Valide du 06 à 00h jusqu'au 07 à 00h UTC


052300Z 0600/0624 36010KT 9999 BKN030
TEMPO 0600/0603 34015G25KT
PROB40
TEMPO 0600/0610 BKN008
TEMPO 0622/0624 BKN012
ATIS : +33 4 72 15 87 96



MET'MAP, la Météo Aéronautique d'un coup d'oeil ! - Copyright ORBIFLY Décembre 2007 - Disclaimer

ORBIFLY MET'MAP TEAM :

Programmation & Développement : Alexandra Zaïnal
Sur une idée originale de : Baudouin d'Aumeries
Soutien technique & logistique : Manuel Goepfert
Assistance : Marc-Olivier Méhu




SOURCES & CREDITS :

   NOAA